Cincinnati, OH

11:21 AM EST on February 13, 2016 (GMT -0500)
Mt Adams | | Change Station
CLOSE
Current Station
Personal Weather Station
Location: Cincinnati, OH
Elevation: 797 ft
Nearby Weather Stations

Elev 797 ft 39.11 °N, 84.50 °W | Updated 7 seconds ago

Partly Cloudy
Partly Cloudy
16.3 °F
Feels Like 10 °F
N
4.2
Wind Variable Wind from NNE
Gusts 4.7 mph

Today
High -- | Low -- °F
--% Chance of Precip.
Yesterday
High -- | Low -- °F
Precip. -- in
Pressure 30.61 in
Visibility 10.0 miles
Clouds Mostly Cloudy 3900 ft
Windchill 10 °F
Dew Point 2 °F
Humidity 53%
Rainfall 0.00 in
Snow Depth Not available.
7:32 AM 6:12 PM
Waxing Crescent, 32% visible
METAR KLUK 131553Z 31008KT 270V350 10SM BKN039 M09/M17 A3059 RMK AO2 SLP366 T10941167
Pressure 30.61 in
Visibility 10.0 miles
Clouds Mostly Cloudy 3900 ft
Windchill 10 °F
Dew Point 2 °F
Humidity 53%
Rainfall 0.00 in
Snow Depth Not available.
7:32 AM 6:12 PM
Waxing Crescent, 32% visible
METAR KLUK 131553Z 31008KT 270V350 10SM BKN039 M09/M17 A3059 RMK AO2 SLP366 T10941167

10-Day Weather Forecast

Almanac

Astronomy

Feb. 13, 2016 Rise Set
Actual Time
Civil Twilight
Nautical Twilight
Astronomical Twilight
Moon
Length of Visible Light
Length of Day
Tomorrow will be .
, % of the Moon is Illuminated

Today's Extremes

State Highs State Lows

Community

WunderPhotos

Upload Photos

1,892,599 photos uploaded!

WunderBlog® & News

Nearby

Air Quality

  Air Quality AQ Index Pollutant
Not available.

Snow Depth

Station Depth Elevation

Earthquake Activity

City Distance Mag. Time & Date
Minimum magnitude displayed is 2.5.

Coastal Water Temperatures

Place Temperature

Stations

Nearby Weather Stations

Station Location Temp. Windchill Dew Point Humidity Wind Precip. Elev Updated Type
                   

Watches & Warnings

There are currently no watches in effect.